createdAt,value
2024-05-09T00:00:38.781Z,50.47
2024-05-09T00:01:33.159Z,50.47
2024-05-09T00:02:32.161Z,50.47
2024-05-09T00:03:32.075Z,50.47
2024-05-09T00:04:32.087Z,50.47
2024-05-09T00:05:32.144Z,50.47
2024-05-09T00:06:31.992Z,50.47
2024-05-09T00:07:32.039Z,50.47
2024-05-09T00:08:32.131Z,50.47
2024-05-09T00:09:31.935Z,50.47
2024-05-09T00:10:36.181Z,50.47
2024-05-09T00:11:32.922Z,50.47
2024-05-09T00:12:31.861Z,50.47
2024-05-09T00:13:31.831Z,50.47
2024-05-09T00:14:31.996Z,50.47
2024-05-09T00:15:31.806Z,50.47
2024-05-09T00:16:31.813Z,50.47
2024-05-09T00:17:32.024Z,50.47
2024-05-09T00:18:31.858Z,50.47
2024-05-09T00:19:32.074Z,50.47
2024-05-09T00:20:38.025Z,50.47
2024-05-09T00:21:32.712Z,50.47
2024-05-09T00:22:31.689Z,50.47
2024-05-09T00:23:31.772Z,50.47
2024-05-09T00:24:31.644Z,50.47
2024-05-09T00:25:31.602Z,50.47
2024-05-09T00:26:31.649Z,50.47
2024-05-09T00:27:31.523Z,50.47
2024-05-09T00:28:31.471Z,50.47
2024-05-09T00:29:31.560Z,50.47
2024-05-09T00:30:35.268Z,50.47
2024-05-09T00:31:32.471Z,50.47
2024-05-09T00:32:31.590Z,50.47
2024-05-09T00:33:31.626Z,50.47
2024-05-09T00:34:31.603Z,50.47
2024-05-09T00:35:31.454Z,50.47
2024-05-09T00:36:31.315Z,50.47
2024-05-09T00:37:31.287Z,50.47
2024-05-09T00:38:31.358Z,50.47
2024-05-09T00:39:31.608Z,50.47
2024-05-09T00:40:38.580Z,50.47
2024-05-09T00:41:32.301Z,50.47
2024-05-09T00:42:31.203Z,50.47
2024-05-09T00:43:31.201Z,50.47
2024-05-09T00:44:31.281Z,50.47
2024-05-09T00:45:31.195Z,50.47
2024-05-09T00:46:31.212Z,50.47
2024-05-09T00:47:31.428Z,50.47
2024-05-09T00:48:31.333Z,50.47
2024-05-09T00:49:31.218Z,50.47
2024-05-09T00:50:36.184Z,50.47
2024-05-09T00:51:32.086Z,50.47
2024-05-09T00:52:31.101Z,50.47
2024-05-09T00:53:31.261Z,50.47
2024-05-09T00:54:31.087Z,50.47
2024-05-09T00:55:31.071Z,50.47
2024-05-09T00:56:31.061Z,50.47
2024-05-09T00:57:31.005Z,50.47
2024-05-09T00:58:30.975Z,50.47
2024-05-09T00:59:31.065Z,50.47
2024-05-09T01:00:37.942Z,50.47
2024-05-09T01:01:32.034Z,50.47
2024-05-09T01:02:31.024Z,50.47
2024-05-09T01:03:31.004Z,50.47
2024-05-09T01:04:30.927Z,50.47
2024-05-09T01:05:30.935Z,50.47
2024-05-09T01:06:30.904Z,50.47
2024-05-09T01:07:30.835Z,50.47
2024-05-09T01:08:31.014Z,50.47
2024-05-09T01:09:30.809Z,50.47
2024-05-09T01:10:34.818Z,50.47
2024-05-09T01:11:32.801Z,50.47
2024-05-09T01:12:30.879Z,50.47
2024-05-09T01:13:30.732Z,50.47
2024-05-09T01:14:30.815Z,50.47
2024-05-09T01:15:30.790Z,50.47
2024-05-09T01:16:30.699Z,50.47
2024-05-09T01:17:30.916Z,50.47
2024-05-09T01:18:30.787Z,50.47
2024-05-09T01:19:30.769Z,50.47
2024-05-09T01:20:39.938Z,50.47
2024-05-09T01:21:31.563Z,50.47
2024-05-09T01:22:30.563Z,50.47
2024-05-09T01:23:30.725Z,50.47
2024-05-09T01:24:30.550Z,50.47
2024-05-09T01:25:30.517Z,50.47
2024-05-09T01:26:30.599Z,50.47
2024-05-09T01:27:30.388Z,50.47
2024-05-09T01:28:30.414Z,50.47
2024-05-09T01:29:30.411Z,50.47
2024-05-09T01:30:34.917Z,50.47
2024-05-09T01:31:31.340Z,50.47
2024-05-09T01:32:30.522Z,50.47
2024-05-09T01:33:30.399Z,50.47
2024-05-09T01:34:30.233Z,50.47
2024-05-09T01:35:30.325Z,50.47
2024-05-09T01:36:30.139Z,50.47
2024-05-09T01:37:30.155Z,50.47
2024-05-09T01:38:30.298Z,50.47
2024-05-09T01:39:30.149Z,50.47
2024-05-09T01:40:37.173Z,50.47
2024-05-09T01:41:31.128Z,50.47
2024-05-09T01:42:30.040Z,50.47
2024-05-09T01:43:29.985Z,50.47
2024-05-09T01:44:30.041Z,50.47
2024-05-09T01:45:29.985Z,50.47
2024-05-09T01:46:29.927Z,50.47
2024-05-09T01:47:30.189Z,50.47
2024-05-09T01:48:30.055Z,50.47
2024-05-09T01:49:29.989Z,50.47
2024-05-09T01:50:37.996Z,50.47
2024-05-09T01:51:30.826Z,50.47
2024-05-09T01:52:29.823Z,50.47
2024-05-09T01:53:29.790Z,50.47
2024-05-09T01:54:29.752Z,50.47
2024-05-09T01:55:29.734Z,50.47
2024-05-09T01:56:29.763Z,50.47
2024-05-09T01:57:29.686Z,50.47
2024-05-09T01:58:29.662Z,50.47
2024-05-09T01:59:29.697Z,50.47
2024-05-09T02:00:38.270Z,50.47
2024-05-09T02:01:30.649Z,50.47
2024-05-09T02:02:30.645Z,50.47
2024-05-09T02:03:29.777Z,50.47
2024-05-09T02:04:29.624Z,50.47
2024-05-09T02:05:29.642Z,50.47
2024-05-09T02:06:29.445Z,50.47
2024-05-09T02:07:29.412Z,50.47
2024-05-09T02:08:29.389Z,50.47
2024-05-09T02:09:29.346Z,50.47
2024-05-09T02:11:29.418Z,50.47
2024-05-09T02:12:29.342Z,50.47
2024-05-09T02:13:29.257Z,50.47
2024-05-09T02:14:29.401Z,50.47
2024-05-09T02:15:29.205Z,50.47
2024-05-09T02:16:29.215Z,50.47
2024-05-09T02:17:29.315Z,50.47
2024-05-09T02:18:29.278Z,50.47
2024-05-09T02:19:29.279Z,50.47
2024-05-09T02:20:34.156Z,50.47
2024-05-09T02:21:30.127Z,50.47
2024-05-09T02:22:29.115Z,50.47
2024-05-09T02:23:29.189Z,50.47
2024-05-09T02:24:29.008Z,50.47
2024-05-09T02:25:29.038Z,50.47
2024-05-09T02:26:29.054Z,50.47
2024-05-09T02:27:28.938Z,50.47
2024-05-09T02:28:28.944Z,50.47
2024-05-09T02:29:29.010Z,50.47
2024-05-09T02:31:28.874Z,50.47
2024-05-09T02:32:29.071Z,50.47
2024-05-09T02:33:28.931Z,50.47
2024-05-09T02:34:28.819Z,50.47
2024-05-09T02:35:28.946Z,50.47
2024-05-09T02:36:28.791Z,50.47
2024-05-09T02:37:28.704Z,50.47
2024-05-09T02:38:28.742Z,50.47
2024-05-09T02:39:28.617Z,50.47
2024-05-09T02:40:36.060Z,50.47
2024-05-09T02:41:29.748Z,50.47
2024-05-09T02:42:28.602Z,50.47
2024-05-09T02:43:28.524Z,50.47
2024-05-09T02:44:28.659Z,50.47
2024-05-09T02:45:28.498Z,50.47
2024-05-09T02:46:28.495Z,50.47
2024-05-09T02:47:28.745Z,50.47
2024-05-09T02:48:28.543Z,50.47
2024-05-09T02:49:28.760Z,50.47
2024-05-09T02:50:34.629Z,50.47
2024-05-09T02:51:29.483Z,50.47
2024-05-09T02:52:28.435Z,50.47
2024-05-09T02:53:28.427Z,50.47
2024-05-09T02:54:28.421Z,50.47
2024-05-09T02:55:28.383Z,50.47
2024-05-09T02:56:28.423Z,50.47
2024-05-09T02:57:28.335Z,50.47
2024-05-09T02:58:28.321Z,50.47
2024-05-09T02:59:28.548Z,50.47
2024-05-09T03:00:35.290Z,50.47
2024-05-09T03:01:29.306Z,50.47
2024-05-09T03:02:28.404Z,50.47
2024-05-09T03:03:28.465Z,50.47
2024-05-09T03:04:28.279Z,50.47
2024-05-09T03:05:28.230Z,50.47
2024-05-09T03:06:28.168Z,50.47
2024-05-09T03:07:28.185Z,50.47
2024-05-09T03:08:28.208Z,50.47
2024-05-09T03:09:28.114Z,50.47
2024-05-09T03:11:28.236Z,50.47
2024-05-09T03:12:28.176Z,50.47
2024-05-09T03:13:28.012Z,50.47
2024-05-09T03:14:28.025Z,50.47
2024-05-09T03:15:27.969Z,50.47
2024-05-09T03:16:27.983Z,50.47
2024-05-09T03:17:28.111Z,50.47
2024-05-09T03:18:28.070Z,50.47
2024-05-09T03:19:28.073Z,50.47
2024-05-09T03:20:33.405Z,50.47
2024-05-09T03:21:28.927Z,50.47
2024-05-09T03:22:27.918Z,50.47
2024-05-09T03:23:27.900Z,50.47
2024-05-09T03:24:27.826Z,50.47
2024-05-09T03:25:27.820Z,50.47
2024-05-09T03:26:27.866Z,50.47
2024-05-09T03:27:27.809Z,50.47
2024-05-09T03:28:27.747Z,50.47
2024-05-09T03:29:27.770Z,50.47
2024-05-09T03:30:36.045Z,50.47
2024-05-09T03:31:28.719Z,50.47
2024-05-09T03:32:27.833Z,50.47
2024-05-09T03:33:27.852Z,50.47
2024-05-09T03:34:27.657Z,50.47
2024-05-09T03:35:27.789Z,50.47
2024-05-09T03:36:27.646Z,50.47
2024-05-09T03:37:27.668Z,50.47
2024-05-09T03:38:27.637Z,50.47
2024-05-09T03:39:27.585Z,50.47
2024-05-09T03:40:30.823Z,50.47
2024-05-09T03:41:27.499Z,50.47
2024-05-09T03:42:27.642Z,50.47
2024-05-09T03:43:27.492Z,50.47
2024-05-09T03:44:27.527Z,50.47
2024-05-09T03:45:27.508Z,50.47
2024-05-09T03:46:27.381Z,50.47
2024-05-09T03:47:27.558Z,50.47
2024-05-09T03:48:27.540Z,50.47
2024-05-09T03:49:27.465Z,50.47
2024-05-09T03:50:33.689Z,50.47
2024-05-09T03:51:28.278Z,50.47
2024-05-09T03:52:27.362Z,50.47
2024-05-09T03:53:27.303Z,50.47
2024-05-09T03:54:27.284Z,50.47
2024-05-09T03:55:27.222Z,50.47
2024-05-09T03:56:27.260Z,50.47
2024-05-09T03:57:27.231Z,50.47
2024-05-09T03:58:27.201Z,50.47
2024-05-09T03:59:27.322Z,50.47
2024-05-09T04:00:35.197Z,50.47
2024-05-09T04:01:28.301Z,50.47
2024-05-09T04:02:27.213Z,50.47
2024-05-09T04:03:27.369Z,50.47
2024-05-09T04:04:27.181Z,50.47
2024-05-09T04:05:27.166Z,50.47
2024-05-09T04:06:27.050Z,50.47
2024-05-09T04:07:27.053Z,50.47
2024-05-09T04:08:27.199Z,50.47
2024-05-09T04:09:27.052Z,50.47
2024-05-09T04:10:31.299Z,50.47
2024-05-09T04:11:28.053Z,50.47
2024-05-09T04:12:27.064Z,50.47
2024-05-09T04:13:26.988Z,50.47
2024-05-09T04:14:27.522Z,50.47
2024-05-09T04:15:26.966Z,50.47
2024-05-09T04:16:27.013Z,50.47
2024-05-09T04:17:27.211Z,50.47
2024-05-09T04:18:27.021Z,50.47
2024-05-09T04:19:27.207Z,50.47
2024-05-09T04:20:37.247Z,50.47
2024-05-09T04:21:27.912Z,50.47
2024-05-09T04:22:26.885Z,50.47
2024-05-09T04:23:26.959Z,50.47
2024-05-09T04:24:26.867Z,50.47
2024-05-09T04:25:26.857Z,50.47
2024-05-09T04:26:26.838Z,50.47
2024-05-09T04:27:27.533Z,50.47
2024-05-09T04:28:26.793Z,50.47
2024-05-09T04:29:26.847Z,50.47
2024-05-09T04:30:34.979Z,50.47
2024-05-09T04:31:27.733Z,50.47
2024-05-09T04:32:26.794Z,50.47
2024-05-09T04:33:26.896Z,50.47
2024-05-09T04:34:26.708Z,50.47
2024-05-09T04:35:26.735Z,50.47
2024-05-09T04:36:26.589Z,50.47
2024-05-09T04:37:26.653Z,50.47
2024-05-09T04:38:26.632Z,50.47
2024-05-09T04:39:26.660Z,50.47
2024-05-09T04:40:33.132Z,50.47
2024-05-09T04:41:27.641Z,50.47
2024-05-09T04:42:26.586Z,50.47
2024-05-09T04:43:26.570Z,50.47
2024-05-09T04:44:26.682Z,50.47
2024-05-09T04:45:27.322Z,50.47
2024-05-09T04:46:26.505Z,50.47
2024-05-09T04:47:26.679Z,50.47
2024-05-09T04:48:26.720Z,50.47
2024-05-09T04:49:26.580Z,50.47
2024-05-09T04:50:35.408Z,50.47
2024-05-09T04:51:27.396Z,50.47
2024-05-09T04:52:26.440Z,50.47
2024-05-09T04:53:26.496Z,50.47
2024-05-09T04:54:34.118Z,50.47
2024-05-09T04:55:27.480Z,50.47
2024-05-09T04:56:26.430Z,50.47
2024-05-09T04:57:26.389Z,50.47
2024-05-09T04:58:26.337Z,50.47
2024-05-09T04:59:26.347Z,50.47
2024-05-09T05:00:34.473Z,50.47
2024-05-09T05:02:49.258Z,50.47
2024-05-09T05:03:26.347Z,50.47
2024-05-09T05:04:26.281Z,50.47
2024-05-09T05:05:26.223Z,50.47
2024-05-09T05:06:33.888Z,51.81
2024-05-09T05:07:33.901Z,54.20
2024-05-09T05:08:34.062Z,55.65
2024-05-09T05:09:33.916Z,56.90
2024-05-09T05:10:36.457Z,57.43
2024-05-09T05:11:33.979Z,57.99
2024-05-09T05:12:33.929Z,58.27
2024-05-09T05:13:33.786Z,58.21
2024-05-09T05:14:33.887Z,58.43
2024-05-09T05:15:33.768Z,58.39
2024-05-09T05:16:33.765Z,58.18
2024-05-09T05:17:34.007Z,58.42
2024-05-09T05:18:33.837Z,58.67
2024-05-09T05:19:34.013Z,58.79
2024-05-09T05:20:34.393Z,59.33
2024-05-09T05:21:33.755Z,59.58
2024-05-09T05:22:33.786Z,59.52
2024-05-09T05:23:33.828Z,59.09
2024-05-09T05:24:33.707Z,58.98
2024-05-09T05:25:33.699Z,59.15
2024-05-09T05:26:33.841Z,59.11
2024-05-09T05:27:33.686Z,59.04
2024-05-09T05:28:33.692Z,58.95
2024-05-09T05:29:33.771Z,58.62
2024-05-09T05:30:34.990Z,58.67
2024-05-09T05:31:33.688Z,58.84
2024-05-09T05:32:33.794Z,58.59
2024-05-09T05:33:33.748Z,58.38
2024-05-09T05:34:33.657Z,58.47
2024-05-09T05:35:33.950Z,58.13
2024-05-09T05:36:33.612Z,57.89
2024-05-09T05:37:33.639Z,57.93
2024-05-09T05:38:33.627Z,58.13
2024-05-09T05:39:33.590Z,57.91
2024-05-09T05:40:36.994Z,57.90
2024-05-09T05:41:33.637Z,57.82
2024-05-09T05:42:33.530Z,57.75
2024-05-09T05:43:33.484Z,57.78
2024-05-09T05:44:33.549Z,58.02
2024-05-09T05:45:33.424Z,57.94
2024-05-09T05:46:59.092Z,57.43
2024-05-09T05:47:33.696Z,57.44
2024-05-09T05:48:33.578Z,57.38
2024-05-09T05:49:33.623Z,57.39
2024-05-09T05:50:36.527Z,57.49
2024-05-09T05:51:33.407Z,57.37
2024-05-09T05:52:33.459Z,57.84
2024-05-09T05:53:33.742Z,57.32
2024-05-09T05:54:33.454Z,57.48
2024-05-09T05:55:33.385Z,57.08
2024-05-09T05:56:33.440Z,57.31
2024-05-09T05:57:33.346Z,57.52
2024-05-09T05:58:33.389Z,57.45
2024-05-09T05:59:33.402Z,57.97
2024-05-09T06:00:38.014Z,57.73
2024-05-09T06:01:34.301Z,57.60
2024-05-09T06:02:33.338Z,56.21
2024-05-09T06:03:33.345Z,55.55
2024-05-09T06:04:33.172Z,56.08
2024-05-09T06:05:33.408Z,55.64
2024-05-09T06:06:33.125Z,56.01
2024-05-09T06:07:33.205Z,55.84
2024-05-09T06:08:34.415Z,56.29
2024-05-09T06:09:33.067Z,56.96
2024-05-09T06:10:38.341Z,57.45
2024-05-09T06:11:34.142Z,57.34
2024-05-09T06:12:33.041Z,57.34
2024-05-09T06:13:33.049Z,56.98
2024-05-09T06:14:33.110Z,56.81
2024-05-09T06:15:33.019Z,56.18
2024-05-09T06:16:32.931Z,56.64
2024-05-09T06:17:33.200Z,55.68
2024-05-09T06:18:33.056Z,55.31
2024-05-09T06:19:33.215Z,55.34
2024-05-09T06:20:36.406Z,55.49
2024-05-09T06:21:33.893Z,55.61
2024-05-09T06:22:32.850Z,56.02
2024-05-09T06:23:32.978Z,55.44
2024-05-09T06:24:32.763Z,55.24
2024-05-09T06:25:32.783Z,55.11
2024-05-09T06:26:32.889Z,55.15
2024-05-09T06:27:32.758Z,55.19
2024-05-09T06:28:33.315Z,54.33
2024-05-09T06:29:32.724Z,53.92
2024-05-09T06:30:38.429Z,53.83
2024-05-09T06:31:33.606Z,53.12
2024-05-09T06:32:32.663Z,53.11
2024-05-09T06:33:32.952Z,53.35
2024-05-09T06:34:32.577Z,53.74
2024-05-09T06:35:32.699Z,54.28
2024-05-09T06:36:32.436Z,54.45
2024-05-09T06:37:32.442Z,54.84
2024-05-09T06:38:32.491Z,54.86
2024-05-09T06:39:32.403Z,54.38
2024-05-09T06:40:37.474Z,54.69
2024-05-09T06:41:33.464Z,54.75
2024-05-09T06:42:32.363Z,54.66
2024-05-09T06:43:32.329Z,54.20
2024-05-09T06:44:32.349Z,53.70
2024-05-09T06:45:32.351Z,53.80
2024-05-09T06:46:32.207Z,53.09
2024-05-09T06:47:32.397Z,54.03
2024-05-09T06:48:32.294Z,54.17
2024-05-09T06:49:32.178Z,54.09
2024-05-09T06:50:37.455Z,54.45
2024-05-09T06:51:33.049Z,54.55
2024-05-09T06:52:32.042Z,55.07
2024-05-09T06:53:32.114Z,55.05
2024-05-09T06:54:31.940Z,54.61
2024-05-09T06:55:32.045Z,54.48
2024-05-09T06:56:31.974Z,53.64
2024-05-09T06:57:31.870Z,53.83
2024-05-09T06:58:31.845Z,53.42
2024-05-09T06:59:32.009Z,53.11
2024-05-09T07:00:38.581Z,52.84
2024-05-09T07:01:32.961Z,52.74
2024-05-09T07:02:31.975Z,52.70
2024-05-09T07:03:32.014Z,53.08
2024-05-09T07:04:31.909Z,53.65
2024-05-09T07:05:31.923Z,53.81
2024-05-09T07:06:31.734Z,53.73
2024-05-09T07:07:31.733Z,53.80
2024-05-09T07:08:31.931Z,53.56
2024-05-09T07:09:31.649Z,53.93
2024-05-09T07:10:35.169Z,54.67
2024-05-09T07:11:31.797Z,54.04
2024-05-09T07:12:31.664Z,53.91
2024-05-09T07:13:31.578Z,53.64
2024-05-09T07:14:32.762Z,53.29
2024-05-09T07:15:31.601Z,53.30
2024-05-09T07:16:31.492Z,52.56
2024-05-09T07:17:31.866Z,52.70
2024-05-09T07:18:31.712Z,52.80
2024-05-09T07:19:31.513Z,52.84
2024-05-09T07:20:34.660Z,51.88
2024-05-09T07:21:31.409Z,51.51
2024-05-09T07:22:31.393Z,51.59
2024-05-09T07:23:31.457Z,50.88
2024-05-09T07:24:31.261Z,50.07
2024-05-09T07:25:31.486Z,50.14
2024-05-09T07:26:31.321Z,49.73
2024-05-09T07:27:31.254Z,49.22
2024-05-09T07:28:31.307Z,48.81
2024-05-09T07:29:32.188Z,48.62
2024-05-09T07:30:34.266Z,48.75
2024-05-09T07:31:31.187Z,48.89
2024-05-09T07:32:31.354Z,48.80
2024-05-09T07:33:31.352Z,48.83
2024-05-09T07:34:31.216Z,48.87
2024-05-09T07:35:31.445Z,48.89
2024-05-09T07:36:31.018Z,48.62
2024-05-09T07:37:30.919Z,47.95
2024-05-09T07:38:30.958Z,47.58
2024-05-09T07:39:30.833Z,47.15
2024-05-09T07:40:35.695Z,47.29
2024-05-09T07:41:31.878Z,46.85
2024-05-09T07:42:30.661Z,46.83
2024-05-09T07:43:30.644Z,46.96
2024-05-09T07:44:30.811Z,47.11
2024-05-09T07:45:47.414Z,46.33
2024-05-09T07:47:37.092Z,46.06
2024-05-09T07:48:57.357Z,46.63
2024-05-09T07:50:01.266Z,46.16
2024-05-09T07:53:08.169Z,47.04
2024-05-09T07:53:32.671Z,47.24
2024-05-09T07:53:40.549Z,47.16
2024-05-09T07:54:31.191Z,46.78
2024-05-09T07:55:31.466Z,46.68
2024-05-09T07:56:30.539Z,47.26
2024-05-09T07:57:30.013Z,47.79
2024-05-09T07:58:30.044Z,47.54
2024-05-09T07:59:30.840Z,47.16
2024-05-09T08:00:31.818Z,46.86
2024-05-09T08:01:30.063Z,46.73
2024-05-09T08:02:30.128Z,47.31
2024-05-09T08:03:30.096Z,46.53
2024-05-09T08:04:30.106Z,47.15
2024-05-09T08:05:30.164Z,47.13
2024-05-09T08:06:29.930Z,47.07
2024-05-09T08:07:29.906Z,47.56
2024-05-09T08:08:29.910Z,47.83
2024-05-09T08:09:29.842Z,47.05
2024-05-09T08:10:29.936Z,46.77
2024-05-09T08:11:29.964Z,46.90
2024-05-09T08:12:29.847Z,46.56
2024-05-09T08:13:29.832Z,46.05
2024-05-09T08:14:29.738Z,46.04
2024-05-09T08:15:29.837Z,45.95
2024-05-09T08:16:29.846Z,45.64
2024-05-09T08:17:29.816Z,45.84
2024-05-09T08:18:29.973Z,45.46
2024-05-09T08:19:29.811Z,45.67
2024-05-09T08:20:33.677Z,45.84
2024-05-09T08:21:30.750Z,46.13
2024-05-09T08:22:29.595Z,45.34
2024-05-09T08:23:29.600Z,46.38
2024-05-09T08:24:29.532Z,47.11
2024-05-09T08:25:29.417Z,46.71
2024-05-09T08:26:29.407Z,46.66
2024-05-09T08:27:29.369Z,46.49
2024-05-09T08:28:29.399Z,46.20
2024-05-09T08:29:29.547Z,46.43
2024-05-09T08:30:33.899Z,47.20
2024-05-09T08:31:30.364Z,45.25
2024-05-09T08:32:29.239Z,44.55
2024-05-09T08:33:29.294Z,44.57
2024-05-09T08:34:29.147Z,44.18
2024-05-09T08:35:28.974Z,43.57
2024-05-09T08:36:28.977Z,43.26
2024-05-09T08:37:32.843Z,43.02
2024-05-09T08:38:29.710Z,42.69
2024-05-09T08:39:28.808Z,42.90
2024-05-09T08:40:34.416Z,43.50
2024-05-09T08:41:29.521Z,43.57
2024-05-09T08:42:28.576Z,44.10
2024-05-09T08:43:28.435Z,43.91
2024-05-09T08:44:28.456Z,43.11
2024-05-09T08:45:28.474Z,42.91
2024-05-09T08:46:28.446Z,42.32
2024-05-09T08:47:28.363Z,42.26
2024-05-09T08:48:28.162Z,42.70
2024-05-09T08:49:27.994Z,42.42
2024-05-09T08:50:36.172Z,42.45
2024-05-09T08:51:28.828Z,42.02
2024-05-09T08:52:27.763Z,42.73
2024-05-09T08:53:27.556Z,42.69
2024-05-09T08:54:27.687Z,43.42
2024-05-09T08:55:27.469Z,43.62
2024-05-09T08:56:27.371Z,43.32
2024-05-09T08:57:27.382Z,43.46
2024-05-09T08:58:27.373Z,43.80
2024-05-09T08:59:27.283Z,43.51
2024-05-09T09:00:34.149Z,43.19
2024-05-09T09:01:28.368Z,42.62
2024-05-09T09:02:27.197Z,42.37
2024-05-09T09:03:27.187Z,42.11
2024-05-09T09:04:28.616Z,42.16
2024-05-09T09:05:26.925Z,42.66
2024-05-09T09:06:26.971Z,42.78
2024-05-09T09:07:26.651Z,42.58
2024-05-09T09:08:26.630Z,42.29
2024-05-09T09:09:26.641Z,41.63
2024-05-09T09:10:31.808Z,41.44
2024-05-09T09:11:27.413Z,41.30
2024-05-09T09:12:26.346Z,41.18
2024-05-09T09:13:26.357Z,40.84
2024-05-09T09:14:27.282Z,41.11
2024-05-09T09:15:26.146Z,40.66
2024-05-09T09:16:26.209Z,40.52
2024-05-09T09:17:26.045Z,39.97
2024-05-09T09:18:25.978Z,40.26
2024-05-09T09:19:26.099Z,41.32
2024-05-09T09:20:33.307Z,40.59
2024-05-09T09:21:26.841Z,40.37
2024-05-09T09:22:25.699Z,39.80
2024-05-09T09:23:25.602Z,40.17
2024-05-09T09:24:25.607Z,40.70
2024-05-09T09:25:25.523Z,41.11
2024-05-09T09:26:25.427Z,39.73
2024-05-09T09:27:25.320Z,40.14
2024-05-09T09:28:25.230Z,41.53
2024-05-09T09:29:25.220Z,41.28
2024-05-09T09:30:34.704Z,40.37
2024-05-09T09:31:26.208Z,40.13
2024-05-09T09:32:25.032Z,39.81
2024-05-09T09:33:24.981Z,39.69
2024-05-09T09:34:24.972Z,38.63
2024-05-09T09:35:24.850Z,38.69
2024-05-09T09:36:24.672Z,38.43
2024-05-09T09:37:25.306Z,38.77
2024-05-09T09:38:24.492Z,38.69
2024-05-09T09:39:24.486Z,37.84
2024-05-09T09:40:29.279Z,38.24
2024-05-09T09:41:26.250Z,38.10
2024-05-09T09:42:24.185Z,37.88
2024-05-09T09:43:24.166Z,38.01
2024-05-09T09:44:24.110Z,38.30
2024-05-09T09:45:23.967Z,38.08
2024-05-09T09:46:24.150Z,38.15
2024-05-09T09:47:23.952Z,38.27
2024-05-09T09:48:23.968Z,38.29
2024-05-09T09:49:23.876Z,38.39
2024-05-09T09:50:31.565Z,38.39
2024-05-09T09:51:24.663Z,38.17
2024-05-09T09:52:23.614Z,37.87
2024-05-09T09:53:23.402Z,37.89
2024-05-09T09:54:23.362Z,38.23
2024-05-09T09:55:23.368Z,38.29
2024-05-09T09:57:17.800Z,38.64
2024-05-09T09:58:17.955Z,38.61
2024-05-09T09:59:17.808Z,38.47
2024-05-09T10:00:24.445Z,38.65
2024-05-09T10:01:18.871Z,38.63
2024-05-09T10:02:17.982Z,38.59
2024-05-09T10:03:17.872Z,38.57
2024-05-09T10:04:18.036Z,38.94
2024-05-09T10:05:17.873Z,38.92
2024-05-09T10:06:17.790Z,38.47
2024-05-09T10:07:17.840Z,38.42
2024-05-09T10:08:17.884Z,38.08
2024-05-09T10:09:17.817Z,38.56
2024-05-09T10:10:26.502Z,38.21
2024-05-09T10:11:18.736Z,37.91
2024-05-09T10:12:17.780Z,37.45
2024-05-09T10:13:17.724Z,37.72
2024-05-09T10:14:17.744Z,37.64
2024-05-09T10:15:17.724Z,37.49
2024-05-09T10:16:17.895Z,37.74
2024-05-09T10:17:17.800Z,38.46
2024-05-09T10:18:17.858Z,38.05
2024-05-09T10:19:17.833Z,38.72
2024-05-09T10:20:21.979Z,38.87
2024-05-09T10:21:18.814Z,38.98
2024-05-09T10:22:17.857Z,38.98
2024-05-09T10:23:17.772Z,38.20
2024-05-09T10:24:17.801Z,37.99
2024-05-09T10:25:17.997Z,37.74
2024-05-09T10:26:17.810Z,36.82
2024-05-09T10:27:17.826Z,37.01
2024-05-09T10:28:17.881Z,37.16
2024-05-09T10:29:17.840Z,37.15
2024-05-09T10:30:25.834Z,37.80
2024-05-09T10:31:18.961Z,38.31
2024-05-09T10:32:17.942Z,38.18
2024-05-09T10:33:17.959Z,37.69
2024-05-09T10:34:18.043Z,37.36
2024-05-09T10:35:17.880Z,37.46
2024-05-09T10:36:17.886Z,37.86
2024-05-09T10:37:17.814Z,36.89
2024-05-09T10:38:17.780Z,37.00
2024-05-09T10:39:17.783Z,36.66
2024-05-09T10:40:25.767Z,36.39
2024-05-09T10:41:18.759Z,36.01
2024-05-09T10:42:17.821Z,35.68
2024-05-09T10:43:17.976Z,35.31
2024-05-09T10:44:17.755Z,35.16
2024-05-09T10:45:17.949Z,35.42
2024-05-09T10:46:17.919Z,36.11
2024-05-09T10:47:17.845Z,36.41
2024-05-09T10:48:17.873Z,36.70
2024-05-09T10:49:17.980Z,36.45
2024-05-09T10:50:25.318Z,36.08
2024-05-09T10:51:18.806Z,35.48
2024-05-09T10:52:17.871Z,35.93
2024-05-09T10:53:17.795Z,36.29
2024-05-09T10:54:17.809Z,35.34
2024-05-09T10:55:17.874Z,35.09
2024-05-09T10:56:17.718Z,35.58
2024-05-09T10:57:17.736Z,35.79
2024-05-09T10:58:17.836Z,35.20
2024-05-09T10:59:17.645Z,35.88
2024-05-09T11:00:27.197Z,35.94
2024-05-09T11:01:18.654Z,35.89
2024-05-09T11:02:17.660Z,36.41
2024-05-09T11:03:17.566Z,36.77
2024-05-09T11:04:17.589Z,36.44
2024-05-09T11:05:17.734Z,35.86
2024-05-09T11:06:17.407Z,35.25
2024-05-09T11:07:17.464Z,34.72
2024-05-09T11:08:17.393Z,34.89
2024-05-09T11:09:17.407Z,35.32
2024-05-09T11:10:24.888Z,35.33
2024-05-09T11:11:18.475Z,35.81
2024-05-09T11:12:17.953Z,35.37
2024-05-09T11:13:17.465Z,34.04
2024-05-09T11:14:17.423Z,34.74
2024-05-09T11:15:17.475Z,34.13
2024-05-09T11:16:17.676Z,34.46
2024-05-09T11:17:17.395Z,34.33
2024-05-09T11:18:17.801Z,35.34
2024-05-09T11:19:17.570Z,35.69
2024-05-09T11:20:26.739Z,34.79
2024-05-09T11:21:18.311Z,35.29
2024-05-09T11:22:17.323Z,35.50
2024-05-09T11:23:17.215Z,35.30
2024-05-09T11:24:17.195Z,35.23
2024-05-09T11:25:17.207Z,35.01
2024-05-09T11:26:17.005Z,35.61
2024-05-09T11:27:17.020Z,34.98
2024-05-09T11:28:17.081Z,34.48
2024-05-09T11:29:19.516Z,35.11
2024-05-09T11:30:24.185Z,35.58
2024-05-09T11:31:18.076Z,35.52
2024-05-09T11:32:16.864Z,35.54
2024-05-09T11:33:16.794Z,34.71
2024-05-09T11:34:17.136Z,35.67
2024-05-09T11:35:16.886Z,35.63
2024-05-09T11:36:16.774Z,35.12
2024-05-09T11:37:16.807Z,35.04
2024-05-09T11:38:16.677Z,34.78
2024-05-09T11:39:16.678Z,34.51
2024-05-09T11:40:24.353Z,33.84
2024-05-09T11:41:17.661Z,34.50
2024-05-09T11:42:16.714Z,34.75
2024-05-09T11:43:16.865Z,34.81
2024-05-09T11:44:16.618Z,34.79
2024-05-09T11:45:16.760Z,34.29
2024-05-09T11:46:16.934Z,33.81
2024-05-09T11:47:16.693Z,33.18
2024-05-09T11:48:16.836Z,33.97
2024-05-09T11:49:16.894Z,33.28
2024-05-09T11:50:26.650Z,32.61
2024-05-09T11:51:17.610Z,33.23
2024-05-09T11:52:16.825Z,32.90
2024-05-09T11:53:16.616Z,33.35
2024-05-09T11:54:16.501Z,33.53
2024-05-09T11:55:16.703Z,33.12
2024-05-09T11:56:16.496Z,33.34
2024-05-09T11:57:16.533Z,33.25
2024-05-09T11:58:16.576Z,33.38
2024-05-09T11:59:16.540Z,32.84
2024-05-09T12:00:24.552Z,33.15
2024-05-09T12:01:17.414Z,33.42
2024-05-09T12:02:16.861Z,33.34
2024-05-09T12:03:16.536Z,33.37
2024-05-09T12:04:16.555Z,33.10
2024-05-09T12:05:16.579Z,33.13
2024-05-09T12:06:16.282Z,32.80
2024-05-09T12:07:16.222Z,32.38
2024-05-09T12:08:16.114Z,31.70
2024-05-09T12:09:16.162Z,31.56
2024-05-09T12:10:19.840Z,32.03
2024-05-09T12:11:17.192Z,31.79
2024-05-09T12:12:16.189Z,31.89
2024-05-09T12:13:16.143Z,32.16
2024-05-09T12:14:16.110Z,32.05
2024-05-09T12:15:17.041Z,31.81
2024-05-09T12:16:16.239Z,31.99
2024-05-09T12:17:16.037Z,31.12
2024-05-09T12:18:15.995Z,31.26
2024-05-09T12:19:16.044Z,31.80
2024-05-09T12:20:21.569Z,31.05
2024-05-09T12:21:16.889Z,30.67
2024-05-09T12:22:16.025Z,30.22
2024-05-09T12:23:15.865Z,30.84
2024-05-09T12:24:18.238Z,30.21
2024-05-09T12:25:15.973Z,29.79
2024-05-09T12:26:15.813Z,30.30
2024-05-09T12:27:15.799Z,30.14
2024-05-09T12:28:15.883Z,30.71
2024-05-09T12:29:15.642Z,30.25
2024-05-09T12:30:24.661Z,30.70
2024-05-09T12:31:16.623Z,31.13
2024-05-09T12:32:15.593Z,31.74
2024-05-09T12:33:15.622Z,31.12
2024-05-09T12:34:15.674Z,30.66
2024-05-09T12:35:15.597Z,30.39
2024-05-09T12:36:15.521Z,30.68
2024-05-09T12:37:15.467Z,30.91
2024-05-09T12:38:15.684Z,30.36
2024-05-09T12:39:15.445Z,30.68
2024-05-09T12:40:22.965Z,30.55
2024-05-09T12:41:16.578Z,29.82
2024-05-09T12:42:26.362Z,29.38
2024-05-09T12:43:16.505Z,29.52
2024-05-09T12:44:15.497Z,29.85
2024-05-09T12:45:15.459Z,29.80
2024-05-09T12:46:15.394Z,30.24
2024-05-09T12:47:15.444Z,30.05
2024-05-09T12:48:15.502Z,30.63
2024-05-09T12:49:17.323Z,29.93
2024-05-09T12:50:22.382Z,29.72
2024-05-09T12:51:16.345Z,30.76
2024-05-09T12:52:15.461Z,31.92
2024-05-09T12:53:15.302Z,31.85
2024-05-09T12:54:15.333Z,32.08
2024-05-09T12:55:15.431Z,32.58
2024-05-09T12:56:15.262Z,32.04
2024-05-09T12:57:15.218Z,32.23
2024-05-09T12:58:15.410Z,32.22
2024-05-09T12:59:15.254Z,31.78